Time;durP1;ratioP1;P1;durP2;ratioP2;P2;SDS_P1;SDS_P2;PMS_P1;PMS_P2;Temp;Humidity;BMP_temperature;BMP_pressure;BME280_temperature;BME280_humidity;BME280_pressure;Samples;Min_cycle;Max_cycle;Signal;HPM_P1;HPM_P2
2023/05/23 00:00:19;;;;;;;13.73;12.27;;;17.70;99.90;;;;;;5116930;28;20202;-61
2023/05/23 00:02:47;;;;;;;13.70;12.07;;;17.60;99.90;;;;;;5117277;28;20226;-61
2023/05/23 00:05:16;;;;;;;15.68;13.18;;;17.60;99.90;;;;;;5117356;28;20204;-62
2023/05/23 00:07:43;;;;;;;14.93;12.63;;;17.60;99.90;;;;;;5116770;28;20269;-63
2023/05/23 00:10:10;;;;;;;14.57;12.88;;;17.60;99.90;;;;;;5115947;28;20225;-62
2023/05/23 00:12:38;;;;;;;16.98;13.55;;;17.60;99.90;;;;;;5116818;28;20207;-61
2023/05/23 00:15:07;;;;;;;17.63;13.90;;;17.60;99.90;;;;;;5117263;28;20211;-61
2023/05/23 00:17:36;;;;;;;16.90;13.98;;;17.50;99.90;;;;;;5116966;27;20207;-61
2023/05/23 00:20:03;;;;;;;17.27;13.90;;;17.50;99.90;;;;;;5116492;28;20200;-61
2023/05/23 00:22:30;;;;;;;14.88;13.32;;;17.50;99.90;;;;;;5116643;28;20235;-61
2023/05/23 00:25:00;;;;;;;18.23;14.18;;;17.50;99.90;;;;;;5116859;28;20565;-63
2023/05/23 00:27:27;;;;;;;16.23;14.45;;;17.40;99.90;;;;;;5116694;28;20215;-61
2023/05/23 00:29:54;;;;;;;19.75;14.77;;;17.40;99.90;;;;;;5116390;28;20314;-62
2023/05/23 00:32:21;;;;;;;19.17;14.88;;;17.40;99.90;;;;;;5116535;28;20581;-61
2023/05/23 00:34:49;;;;;;;21.65;15.32;;;17.40;99.90;;;;;;5116647;28;20214;-61
2023/05/23 00:37:17;;;;;;;21.27;16.17;;;17.40;99.90;;;;;;5116564;28;20291;-61
2023/05/23 00:39:43;;;;;;;18.52;16.05;;;17.40;99.90;;;;;;5116669;28;20319;-62
2023/05/23 00:42:10;;;;;;;19.85;17.00;;;17.30;99.90;;;;;;5116302;27;20211;-62
2023/05/23 00:44:37;;;;;;;22.50;18.10;;;17.40;99.90;;;;;;5116506;27;20210;-62
2023/05/23 00:47:04;;;;;;;23.42;18.15;;;17.30;99.90;;;;;;5115438;28;20681;-61
2023/05/23 00:49:31;;;;;;;23.45;18.55;;;17.30;99.90;;;;;;5115180;28;20281;-62
2023/05/23 00:52:00;;;;;;;21.92;18.00;;;17.30;99.90;;;;;;5115455;27;20230;-61
2023/05/23 00:54:29;;;;;;;23.15;18.77;;;17.30;99.90;;;;;;5115504;28;20207;-61
2023/05/23 00:56:56;;;;;;;22.90;18.58;;;17.20;99.90;;;;;;5115353;28;20211;-61
2023/05/23 00:59:25;;;;;;;26.05;20.35;;;17.20;99.90;;;;;;5115391;28;20229;-69
2023/05/23 01:01:53;;;;;;;20.83;17.48;;;17.20;99.90;;;;;;5115081;28;20203;-62
2023/05/23 01:04:25;;;;;;;18.48;16.48;;;17.20;99.90;;;;;;5114932;28;20211;-62
2023/05/23 01:06:52;;;;;;;21.75;16.75;;;17.10;99.90;;;;;;5116138;28;20745;-62
2023/05/23 01:09:22;;;;;;;18.35;15.48;;;17.10;99.90;;;;;;5115185;28;20227;-61
2023/05/23 01:12:14;;;;;;;21.02;16.83;;;17.10;99.90;;;;;;5115370;28;20234;-61
2023/05/23 01:14:46;;;;;;;20.20;16.60;;;17.00;99.90;;;;;;5115175;28;20549;-60
2023/05/23 01:17:18;;;;;;;19.77;15.95;;;17.00;99.90;;;;;;5115581;28;20317;-61
2023/05/23 01:19:57;;;;;;;24.00;16.95;;;17.00;99.90;;;;;;5116011;27;20232;-61
2023/05/23 01:22:38;;;;;;;20.20;17.13;;;17.00;99.90;;;;;;5115380;28;20264;-61
2023/05/23 01:25:14;;;;;;;22.13;17.13;;;17.10;99.90;;;;;;5115526;28;20203;-61
2023/05/23 01:27:49;;;;;;;22.95;16.95;;;17.10;99.90;;;;;;5116009;28;20207;-61
2023/05/23 01:30:18;;;;;;;20.50;17.05;;;17.20;99.90;;;;;;5115916;28;20222;-62
2023/05/23 01:32:47;;;;;;;20.92;16.98;;;17.20;99.90;;;;;;5116101;28;20203;-65
2023/05/23 01:35:19;;;;;;;23.92;17.40;;;17.20;99.90;;;;;;5115539;28;20210;-62
2023/05/23 01:37:46;;;;;;;23.17;17.77;;;17.20;99.90;;;;;;5115901;28;20227;-62
2023/05/23 01:40:13;;;;;;;24.10;16.90;;;17.20;99.90;;;;;;5116325;28;20199;-61
2023/05/23 01:42:39;;;;;;;23.48;17.73;;;17.20;99.90;;;;;;5117649;28;20258;-61
2023/05/23 01:45:09;;;;;;;23.35;18.13;;;17.10;99.90;;;;;;5116965;28;20595;-60
2023/05/23 01:47:37;;;;;;;22.88;17.67;;;17.10;99.90;;;;;;5119052;28;20222;-62
2023/05/23 01:50:05;;;;;;;25.33;18.30;;;17.00;99.90;;;;;;5119637;28;20200;-62
2023/05/23 01:52:33;;;;;;;23.83;18.52;;;17.00;99.90;;;;;;5120868;28;20218;-60
2023/05/23 01:55:00;;;;;;;25.95;19.27;;;16.90;99.90;;;;;;5120373;28;20203;-63
2023/05/23 01:57:29;;;;;;;26.63;18.92;;;16.90;99.90;;;;;;5120423;28;20214;-61
2023/05/23 01:59:56;;;;;;;22.70;17.88;;;16.90;99.90;;;;;;5121900;28;20226;-62
2023/05/23 02:02:24;;;;;;;26.38;20.05;;;16.80;99.90;;;;;;5119940;28;20199;-61
2023/05/23 02:04:52;;;;;;;29.58;20.55;;;16.90;99.90;;;;;;5118866;28;20203;-63
2023/05/23 02:07:21;;;;;;;29.98;21.73;;;16.90;99.90;;;;;;5118535;28;20204;-61
2023/05/23 02:09:48;;;;;;;27.75;20.98;;;16.90;99.90;;;;;;5118790;28;20204;-60
2023/05/23 02:12:15;;;;;;;29.42;21.85;;;16.90;99.90;;;;;;5118269;27;20230;-61
2023/05/23 02:14:42;;;;;;;29.75;20.88;;;16.90;99.90;;;;;;5118494;28;20282;-61
2023/05/23 02:17:09;;;;;;;28.45;20.98;;;17.00;99.90;;;;;;5117926;27;20203;-63
2023/05/23 02:19:37;;;;;;;34.60;22.50;;;17.00;99.90;;;;;;5117539;27;20263;-61
2023/05/23 02:22:05;;;;;;;33.67;24.00;;;17.10;99.90;;;;;;5118132;28;20200;-61
2023/05/23 02:24:32;;;;;;;32.40;22.48;;;17.10;99.90;;;;;;5118255;28;20209;-61
2023/05/23 02:26:58;;;;;;;33.00;23.05;;;17.20;99.90;;;;;;5118439;28;20211;-61
2023/05/23 02:29:25;;;;;;;32.08;23.17;;;17.20;99.90;;;;;;5118522;27;20651;-61
2023/05/23 02:31:52;;;;;;;30.17;23.13;;;17.30;99.90;;;;;;5118257;28;20234;-61
2023/05/23 02:34:18;;;;;;;31.98;23.33;;;17.30;99.90;;;;;;5118747;28;20675;-61
2023/05/23 02:36:47;;;;;;;33.40;23.05;;;17.40;99.90;;;;;;5119867;28;20212;-61
2023/05/23 02:39:13;;;;;;;29.52;22.15;;;17.40;99.90;;;;;;5119536;28;20220;-60
2023/05/23 02:41:40;;;;;;;36.17;24.27;;;17.40;99.90;;;;;;5119719;28;20211;-61
2023/05/23 02:44:07;;;;;;;34.97;24.25;;;17.40;99.90;;;;;;5118941;28;20204;-61
2023/05/23 02:46:34;;;;;;;39.58;28.30;;;17.50;99.90;;;;;;5119545;28;20210;-60
2023/05/23 02:49:00;;;;;;;38.60;26.00;;;17.50;99.90;;;;;;5119793;28;20234;-62
2023/05/23 02:51:27;;;;;;;40.05;28.33;;;17.60;99.90;;;;;;5119714;28;20582;-61
2023/05/23 02:53:55;;;;;;;36.45;26.27;;;17.70;99.90;;;;;;5119843;28;20212;-61
2023/05/23 02:56:22;;;;;;;36.03;25.52;;;17.70;99.90;;;;;;5119202;28;20230;-60
2023/05/23 02:58:49;;;;;;;37.40;25.55;;;17.80;99.90;;;;;;5118587;28;20694;-61
2023/05/23 03:01:16;;;;;;;38.22;25.73;;;17.80;99.90;;;;;;5118860;28;20203;-61
2023/05/23 03:03:43;;;;;;;37.28;25.60;;;17.90;99.90;;;;;;5119773;28;20438;-61
2023/05/23 03:06:13;;;;;;;36.05;24.60;;;18.00;99.90;;;;;;5119151;28;20208;-60
2023/05/23 03:08:40;;;;;;;38.13;24.52;;;18.00;99.90;;;;;;5119353;28;20228;-61
2023/05/23 03:11:08;;;;;;;36.15;25.90;;;18.10;99.90;;;;;;5117788;28;20640;-62
2023/05/23 03:13:35;;;;;;;41.15;25.05;;;18.20;99.90;;;;;;5118350;28;20203;-61
2023/05/23 03:16:02;;;;;;;36.15;23.15;;;18.20;99.90;;;;;;5117901;28;20203;-61
2023/05/23 03:18:29;;;;;;;35.35;23.52;;;18.30;99.90;;;;;;5118267;28;20239;-61
2023/05/23 03:20:56;;;;;;;37.92;25.58;;;18.40;99.90;;;;;;5117807;28;20659;-61
2023/05/23 03:23:22;;;;;;;31.75;23.65;;;18.50;99.90;;;;;;5117201;28;20203;-61
2023/05/23 03:25:49;;;;;;;35.63;24.40;;;18.50;99.90;;;;;;5117350;28;20200;-60
2023/05/23 03:28:17;;;;;;;35.15;25.33;;;18.50;99.90;;;;;;5117518;27;20719;-61
2023/05/23 03:30:44;;;;;;;36.25;23.95;;;18.60;99.90;;;;;;5117750;28;20207;-61
2023/05/23 03:33:11;;;;;;;35.38;25.10;;;18.60;99.90;;;;;;5117632;28;20675;-61
2023/05/23 03:35:37;;;;;;;35.72;25.35;;;18.70;99.90;;;;;;5117375;28;20199;-61
2023/05/23 03:38:04;;;;;;;35.20;24.48;;;18.70;99.90;;;;;;5117428;28;20219;-61
2023/05/23 03:40:31;;;;;;;42.00;27.23;;;18.70;99.90;;;;;;5116699;28;20234;-61
2023/05/23 03:43:05;;;;;;;39.92;27.17;;;18.70;99.90;;;;;;5117371;28;20226;-61
2023/05/23 03:45:33;;;;;;;39.90;27.13;;;18.70;99.90;;;;;;5116948;28;20230;-63
2023/05/23 03:48:00;;;;;;;43.70;29.50;;;18.70;99.90;;;;;;5117129;28;20227;-61
2023/05/23 03:50:27;;;;;;;48.17;32.15;;;18.80;99.90;;;;;;5117031;28;20211;-61
2023/05/23 03:52:54;;;;;;;46.75;30.85;;;18.80;99.90;;;;;;5116695;28;20234;-61
2023/05/23 03:55:22;;;;;;;43.78;30.75;;;18.80;99.90;;;;;;5117154;28;20203;-61
2023/05/23 03:57:49;;;;;;;47.67;32.05;;;18.90;99.90;;;;;;5117315;28;20230;-61
2023/05/23 04:00:17;;;;;;;48.13;33.38;;;18.90;99.90;;;;;;5116829;28;20203;-60
2023/05/23 04:02:47;;;;;;;52.90;35.80;;;18.90;99.90;;;;;;5117037;28;20227;-61
2023/05/23 04:05:14;;;;;;;51.90;35.22;;;19.00;99.90;;;;;;5117190;28;20242;-62
2023/05/23 04:07:41;;;;;;;53.15;34.17;;;19.00;99.90;;;;;;5117142;28;20203;-61
2023/05/23 04:10:09;;;;;;;59.50;37.10;;;19.10;99.90;;;;;;5116743;28;20208;-62
2023/05/23 04:12:36;;;;;;;50.80;36.30;;;19.10;99.90;;;;;;5116665;28;20233;-62
2023/05/23 04:15:04;;;;;;;52.92;37.55;;;19.20;99.90;;;;;;5116605;28;20207;-62
2023/05/23 04:17:30;;;;;;;53.15;35.33;;;19.20;99.90;;;;;;5116159;28;20694;-60
2023/05/23 04:19:59;;;;;;;49.05;34.30;;;19.20;99.90;;;;;;5117742;28;20298;-61
2023/05/23 04:22:26;;;;;;;48.70;33.38;;;19.20;99.90;;;;;;5117977;28;20659;-61
2023/05/23 04:24:53;;;;;;;50.00;34.65;;;19.20;99.90;;;;;;5117500;28;20207;-61
2023/05/23 04:27:21;;;;;;;52.30;35.85;;;19.30;99.90;;;;;;5116934;28;20207;-61
2023/05/23 04:29:47;;;;;;;49.70;34.78;;;19.30;99.90;;;;;;5116450;28;20224;-61
2023/05/23 04:32:15;;;;;;;50.97;34.20;;;19.30;99.90;;;;;;5116943;28;20215;-62
2023/05/23 04:34:43;;;;;;;55.78;37.70;;;19.30;99.90;;;;;;5117057;28;20211;-62
2023/05/23 04:37:13;;;;;;;50.75;36.50;;;19.30;99.90;;;;;;5117207;28;20203;-60
2023/05/23 04:39:39;;;;;;;53.67;37.80;;;19.30;99.90;;;;;;5116900;28;20230;-61
2023/05/23 04:42:07;;;;;;;54.80;36.85;;;19.40;99.90;;;;;;5116711;28;20200;-61
2023/05/23 04:44:36;;;;;;;50.67;36.10;;;19.40;99.90;;;;;;5117062;28;20291;-61
2023/05/23 04:47:03;;;;;;;52.75;35.38;;;19.50;99.90;;;;;;5116510;28;20218;-61
2023/05/23 04:49:32;;;;;;;52.65;38.53;;;19.50;99.90;;;;;;5116642;28;20687;-61
2023/05/23 04:51:59;;;;;;;50.20;34.63;;;19.50;99.90;;;;;;5115996;28;20698;-61
2023/05/23 04:54:27;;;;;;;51.38;35.67;;;19.60;99.90;;;;;;5116422;28;20671;-61
2023/05/23 04:56:54;;;;;;;50.35;35.13;;;19.60;99.90;;;;;;5116076;28;20210;-61
2023/05/23 04:59:21;;;;;;;51.47;34.58;;;19.70;99.90;;;;;;5115486;28;20599;-62
2023/05/23 05:01:48;;;;;;;50.80;35.20;;;19.70;99.90;;;;;;5115503;28;20290;-61
2023/05/23 05:04:14;;;;;;;46.40;33.45;;;19.70;99.90;;;;;;5115551;28;20207;-61
2023/05/23 05:06:41;;;;;;;50.63;35.05;;;19.80;99.90;;;;;;5115770;28;20211;-61
2023/05/23 05:09:08;;;;;;;46.22;34.33;;;19.90;99.90;;;;;;5115302;28;20604;-61
2023/05/23 05:11:36;;;;;;;50.53;34.83;;;20.00;99.90;;;;;;5115049;28;20225;-62
2023/05/23 05:14:03;;;;;;;43.95;33.35;;;20.00;99.90;;;;;;5115434;28;20207;-62
2023/05/23 05:16:30;;;;;;;49.17;34.97;;;20.00;99.90;;;;;;5115086;28;20220;-61
2023/05/23 05:18:57;;;;;;;44.95;34.38;;;20.00;99.90;;;;;;5114769;28;20232;-62
2023/05/23 05:21:24;;;;;;;43.97;33.42;;;19.90;99.90;;;;;;5114201;28;20283;-62
2023/05/23 05:23:51;;;;;;;46.60;34.83;;;19.90;99.90;;;;;;5115565;28;20621;-62
2023/05/23 05:26:18;;;;;;;45.85;32.67;;;20.00;99.90;;;;;;5114738;28;20203;-62
2023/05/23 05:28:46;;;;;;;44.67;33.67;;;20.00;99.90;;;;;;5115107;28;20227;-61
2023/05/23 05:31:14;;;;;;;42.90;32.42;;;20.00;99.90;;;;;;5115785;28;20735;-63
2023/05/23 05:33:44;;;;;;;48.03;35.25;;;20.20;99.90;;;;;;5114813;28;20203;-62
2023/05/23 05:36:11;;;;;;;48.13;33.60;;;20.30;99.90;;;;;;5115345;28;20656;-62
2023/05/23 05:38:38;;;;;;;42.00;33.58;;;20.40;99.90;;;;;;5115459;28;20253;-61
2023/05/23 05:41:05;;;;;;;48.45;35.92;;;20.40;99.90;;;;;;5115219;28;20207;-60
2023/05/23 05:43:32;;;;;;;44.25;32.58;;;20.50;99.90;;;;;;5114768;28;20203;-60
2023/05/23 05:46:00;;;;;;;42.53;32.63;;;20.40;99.90;;;;;;5115919;28;20199;-60
2023/05/23 05:48:26;;;;;;;40.97;33.00;;;20.40;99.90;;;;;;5115214;28;20228;-61
2023/05/23 05:50:53;;;;;;;45.60;34.15;;;20.60;99.90;;;;;;5114618;28;20690;-61
2023/05/23 05:53:20;;;;;;;41.60;33.33;;;20.60;99.90;;;;;;5114980;28;20223;-61
2023/05/23 05:55:47;;;;;;;43.75;31.85;;;20.70;99.90;;;;;;5114724;28;20256;-61
2023/05/23 05:58:13;;;;;;;43.00;32.17;;;20.90;99.90;;;;;;5114152;28;20753;-61
2023/05/23 06:00:42;;;;;;;38.17;30.23;;;21.20;99.90;;;;;;5114593;28;20209;-61
2023/05/23 06:03:10;;;;;;;38.83;30.42;;;21.70;99.90;;;;;;5114245;28;20260;-61
2023/05/23 06:05:38;;;;;;;40.22;29.35;;;22.10;99.90;;;;;;5115627;28;20203;-61
2023/05/23 06:08:05;;;;;;;34.53;29.48;;;22.30;99.90;;;;;;5113878;28;20314;-61
2023/05/23 06:10:31;;;;;;;36.25;27.63;;;22.50;99.90;;;;;;5114236;28;20206;-61
2023/05/23 06:12:58;;;;;;;36.65;29.92;;;22.60;99.90;;;;;;5115180;28;20605;-61
2023/05/23 06:15:26;;;;;;;38.08;28.55;;;22.70;99.90;;;;;;5115034;28;20679;-61
2023/05/23 06:17:53;;;;;;;39.53;29.17;;;22.80;99.90;;;;;;5114349;28;20234;-61
2023/05/23 06:20:21;;;;;;;35.50;27.50;;;22.80;99.90;;;;;;5113972;28;20204;-61
2023/05/23 06:22:47;;;;;;;38.05;27.42;;;22.70;99.90;;;;;;5114191;28;20204;-61
2023/05/23 06:25:14;;;;;;;34.17;27.52;;;22.60;99.90;;;;;;5114249;28;20203;-62
2023/05/23 06:27:41;;;;;;;33.85;27.90;;;22.60;99.90;;;;;;5114626;28;20281;-62
2023/05/23 06:30:09;;;;;;;37.22;27.58;;;22.50;99.90;;;;;;5113941;28;20697;-61
2023/05/23 06:32:35;;;;;;;35.30;28.42;;;22.40;99.90;;;;;;5115204;28;20304;-61
2023/05/23 06:35:02;;;;;;;33.60;27.50;;;22.40;99.90;;;;;;5117963;28;20200;-60
2023/05/23 06:37:30;;;;;;;36.42;27.98;;;22.40;99.90;;;;;;5117563;27;20211;-61
2023/05/23 06:39:57;;;;;;;34.47;27.98;;;22.40;99.90;;;;;;5117609;27;20689;-61
2023/05/23 06:42:23;;;;;;;29.83;26.23;;;22.40;99.90;;;;;;5118622;28;20225;-61
2023/05/23 06:44:50;;;;;;;31.95;25.98;;;22.30;99.90;;;;;;5118979;28;20252;-62
2023/05/23 06:47:17;;;;;;;29.63;26.15;;;22.30;99.90;;;;;;5117886;27;20207;-62
2023/05/23 06:49:44;;;;;;;32.97;26.23;;;22.20;99.90;;;;;;5118133;28;20227;-61
2023/05/23 06:52:11;;;;;;;30.45;26.23;;;22.10;99.90;;;;;;5116886;28;20223;-62
2023/05/23 06:54:39;;;;;;;34.20;26.95;;;21.90;99.90;;;;;;5118138;28;20218;-61
2023/05/23 06:57:06;;;;;;;32.30;25.70;;;21.80;99.90;;;;;;5117659;28;20203;-62
2023/05/23 06:59:32;;;;;;;30.65;25.27;;;21.80;99.90;;;;;;5117455;28;20227;-61
2023/05/23 07:01:59;;;;;;;28.58;25.48;;;21.70;99.90;;;;;;5118322;28;20200;-68
2023/05/23 07:04:26;;;;;;;32.15;25.80;;;21.70;99.90;;;;;;5119291;27;20204;-66
2023/05/23 07:06:53;;;;;;;29.52;25.90;;;21.70;99.90;;;;;;5118077;28;20212;-66
2023/05/23 07:09:20;;;;;;;30.08;25.10;;;21.60;99.90;;;;;;5117565;28;20228;-67
2023/05/23 07:11:48;;;;;;;32.75;26.15;;;21.30;99.90;;;;;;5117170;28;20214;-66
2023/05/23 07:14:15;;;;;;;29.35;24.50;;;21.30;99.90;;;;;;5117307;28;20204;-67
2023/05/23 07:16:42;;;;;;;28.23;25.23;;;21.30;99.90;;;;;;5116812;28;20231;-66
2023/05/23 07:19:09;;;;;;;31.58;25.80;;;21.20;99.90;;;;;;5117305;28;20227;-59
2023/05/23 07:21:36;;;;;;;29.75;26.33;;;21.10;99.90;;;;;;5116482;28;20204;-62
2023/05/23 07:24:02;;;;;;;29.83;26.63;;;21.00;99.90;;;;;;5116063;27;20234;-61
2023/05/23 07:26:29;;;;;;;29.88;25.38;;;20.80;99.90;;;;;;5116460;28;20211;-61
2023/05/23 07:28:58;;;;;;;29.23;25.83;;;20.70;99.90;;;;;;5115792;28;20227;-62
2023/05/23 07:31:25;;;;;;;28.00;24.27;;;20.80;99.90;;;;;;5115703;28;20214;-61
2023/05/23 07:33:51;;;;;;;29.63;24.58;;;21.00;99.90;;;;;;5116107;28;20228;-61
2023/05/23 07:36:18;;;;;;;26.98;24.15;;;21.10;99.90;;;;;;5116092;28;20671;-62
2023/05/23 07:38:45;;;;;;;26.70;23.85;;;21.40;99.90;;;;;;5116451;28;20227;-60
2023/05/23 07:41:12;;;;;;;28.23;23.38;;;21.80;99.90;;;;;;5115809;28;20295;-60
2023/05/23 07:43:39;;;;;;;31.70;22.60;;;21.80;99.90;;;;;;5115707;28;20487;-60
2023/05/23 07:46:07;;;;;;;26.67;22.38;;;21.80;99.90;;;;;;5115627;28;20203;-60
2023/05/23 07:48:34;;;;;;;24.90;22.30;;;21.60;99.90;;;;;;5115642;28;20227;-61
2023/05/23 07:51:00;;;;;;;24.05;21.58;;;21.60;99.90;;;;;;5116283;28;20207;-60
2023/05/23 07:53:27;;;;;;;25.25;21.77;;;21.60;99.90;;;;;;5116190;28;20243;-60
2023/05/23 07:55:54;;;;;;;24.15;19.17;;;21.70;99.90;;;;;;5115686;28;20199;-61
2023/05/23 07:58:21;;;;;;;21.08;18.60;;;22.40;99.90;;;;;;5115377;28;20255;-62
2023/05/23 08:00:49;;;;;;;18.73;16.70;;;23.50;99.90;;;;;;5115277;28;20200;-60
2023/05/23 08:03:17;;;;;;;18.65;16.42;;;24.20;99.90;;;;;;5115696;28;20218;-61
2023/05/23 08:05:44;;;;;;;18.10;15.55;;;24.70;99.90;;;;;;5115539;28;20211;-60
2023/05/23 08:08:11;;;;;;;17.10;15.30;;;25.10;99.90;;;;;;5116198;28;20219;-60
2023/05/23 08:10:38;;;;;;;17.25;15.45;;;25.90;99.90;;;;;;5115262;28;20203;-61
2023/05/23 08:13:05;;;;;;;19.10;15.55;;;25.90;99.90;;;;;;5115317;28;20249;-60
2023/05/23 08:15:32;;;;;;;16.58;15.07;;;25.60;99.90;;;;;;5115623;28;20208;-61
2023/05/23 08:17:59;;;;;;;17.15;15.35;;;25.30;99.90;;;;;;5116462;28;20292;-61
2023/05/23 08:20:30;;;;;;;17.50;15.65;;;25.50;99.90;;;;;;5115993;28;20200;-62
2023/05/23 08:22:58;;;;;;;15.85;14.30;;;26.50;99.90;;;;;;5116273;28;20496;-61
2023/05/23 08:25:29;;;;;;;15.68;13.98;;;27.30;99.90;;;;;;5116452;28;20203;-60
2023/05/23 08:27:55;;;;;;;15.15;13.63;;;27.10;99.90;;;;;;5115665;28;20227;-61
2023/05/23 08:30:24;;;;;;;17.35;15.07;;;26.70;99.90;;;;;;5116041;28;20736;-62
2023/05/23 08:32:51;;;;;;;15.57;13.95;;;26.60;99.90;;;;;;5116085;28;20245;-61
2023/05/23 08:35:17;;;;;;;14.60;13.02;;;26.40;99.90;;;;;;5115763;28;20600;-61
2023/05/23 08:37:46;;;;;;;13.40;12.00;;;26.60;99.90;;;;;;5115893;28;20227;-61
2023/05/23 08:40:18;;;;;;;17.33;13.77;;;26.70;99.90;;;;;;5115416;28;20265;-62
2023/05/23 08:42:45;;;;;;;14.88;13.32;;;26.10;99.90;;;;;;5115699;28;20211;-61
2023/05/23 08:45:12;;;;;;;14.50;13.00;;;25.10;99.90;;;;;;5115628;28;20580;-60
2023/05/23 08:47:42;;;;;;;17.27;13.95;;;24.40;99.90;;;;;;5115400;28;20250;-62
2023/05/23 08:50:12;;;;;;;14.48;12.98;;;24.30;99.90;;;;;;5115034;27;20225;-62
2023/05/23 08:52:43;;;;;;;14.30;12.80;;;24.40;99.90;;;;;;5115636;28;20219;-61
2023/05/23 08:55:12;;;;;;;14.70;12.93;;;24.30;99.90;;;;;;5116404;28;20222;-61
2023/05/23 08:57:42;;;;;;;16.35;12.80;;;24.10;99.90;;;;;;5118323;28;20235;-62
2023/05/23 09:00:13;;;;;;;13.88;12.38;;;24.20;99.90;;;;;;5117063;28;20294;-60
2023/05/23 09:02:41;;;;;;;17.30;12.90;;;24.70;99.90;;;;;;5116242;28;20199;-61
2023/05/23 09:05:09;;;;;;;14.15;12.05;;;24.90;99.90;;;;;;5115434;28;20218;-60
2023/05/23 09:07:36;;;;;;;14.90;12.05;;;24.70;99.90;;;;;;5114980;28;20264;-60
2023/05/23 09:10:05;;;;;;;13.43;12.13;;;24.60;99.90;;;;;;5115213;28;20272;-61
2023/05/23 09:12:35;;;;;;;15.40;12.40;;;24.50;99.90;;;;;;5114811;28;20294;-60
2023/05/23 09:15:02;;;;;;;18.05;12.18;;;24.60;99.90;;;;;;5114804;28;20199;-60
2023/05/23 09:17:30;;;;;;;13.50;10.77;;;24.40;99.90;;;;;;5114327;28;20210;-63
2023/05/23 09:19:57;;;;;;;14.70;11.45;;;24.10;99.90;;;;;;5114250;28;20252;-61
2023/05/23 09:22:25;;;;;;;13.52;11.68;;;23.90;99.90;;;;;;5114867;28;20207;-62
2023/05/23 09:24:53;;;;;;;14.80;12.48;;;23.70;99.90;;;;;;5114559;27;20200;-63
2023/05/23 09:27:19;;;;;;;12.18;11.00;;;23.40;99.90;;;;;;5115106;28;20207;-61
2023/05/23 09:29:48;;;;;;;14.98;11.60;;;23.40;99.90;;;;;;5114087;28;20223;-62
2023/05/23 09:32:16;;;;;;;11.82;10.10;;;23.50;99.90;;;;;;5114990;28;20207;-62
2023/05/23 09:34:55;;;;;;;11.13;10.02;;;23.80;99.90;;;;;;5115099;28;20322;-63
2023/05/23 09:37:23;;;;;;;11.15;9.63;;;24.10;99.90;;;;;;5116447;28;20203;-62
2023/05/23 09:39:50;;;;;;;11.30;9.68;;;24.30;99.90;;;;;;5117700;28;20248;-62
2023/05/23 09:42:21;;;;;;;10.60;9.57;;;24.50;99.90;;;;;;5117139;28;20203;-62
2023/05/23 09:44:49;;;;;;;10.90;9.80;;;24.60;99.90;;;;;;5115823;28;20256;-61
2023/05/23 09:47:17;;;;;;;10.27;9.15;;;24.70;99.90;;;;;;5115412;28;20246;-62
2023/05/23 09:49:44;;;;;;;11.38;10.00;;;25.00;99.90;;;;;;5115716;28;20280;-63
2023/05/23 09:52:11;;;;;;;14.13;10.13;;;25.30;99.90;;;;;;5115340;28;20206;-63
2023/05/23 09:54:38;;;;;;;10.90;9.38;;;25.20;99.90;;;;;;5115521;28;20227;-63
2023/05/23 09:57:09;;;;;;;10.52;9.43;;;24.60;99.90;;;;;;5115213;28;20203;-62
2023/05/23 09:59:39;;;;;;;12.13;9.25;;;24.00;99.90;;;;;;5115654;28;20258;-63
2023/05/23 10:02:11;;;;;;;10.52;9.52;;;23.60;99.90;;;;;;5115410;28;20214;-62
2023/05/23 10:04:39;;;;;;;10.95;9.30;;;23.50;99.90;;;;;;5115103;28;20689;-63
2023/05/23 10:07:14;;;;;;;10.32;9.32;;;23.50;99.90;;;;;;5115464;28;20208;-64
2023/05/23 10:09:45;;;;;;;10.68;9.55;;;23.60;99.90;;;;;;5119013;27;20219;-63
2023/05/23 10:12:42;;;;;;;11.00;8.80;;;23.70;99.90;;;;;;5118580;28;20210;-63
2023/05/23 10:15:11;;;;;;;11.48;9.25;;;24.00;99.90;;;;;;5118314;28;20204;-65
2023/05/23 10:18:00;;;;;;;10.63;9.52;;;24.50;99.90;;;;;;5117826;28;20207;-63
2023/05/23 10:20:31;;;;;;;9.63;8.60;;;24.90;99.90;;;;;;5104442;28;20204;-62
2023/05/23 10:22:59;;;;;;;11.27;9.43;;;25.00;99.90;;;;;;5118863;28;20211;-64
2023/05/23 10:25:27;;;;;;;10.38;9.30;;;24.80;99.90;;;;;;5118883;28;20667;-64
2023/05/23 10:27:57;;;;;;;14.43;9.30;;;24.70;99.90;;;;;;5119720;27;20253;-64
2023/05/23 10:30:25;;;;;;;10.73;9.45;;;24.50;99.90;;;;;;5118418;28;20200;-63
2023/05/23 10:32:54;;;;;;;14.82;10.20;;;24.50;99.90;;;;;;5118441;28;20208;-63
2023/05/23 10:35:26;;;;;;;11.25;10.15;;;24.20;99.90;;;;;;5118047;28;20734;-63
2023/05/23 10:37:59;;;;;;;11.82;9.82;;;24.00;99.90;;;;;;5118975;28;20223;-62
2023/05/23 10:40:37;;;;;;;11.90;10.18;;;23.90;99.90;;;;;;5119213;28;20207;-63
2023/05/23 10:43:12;;;;;;;10.57;8.98;;;24.20;99.90;;;;;;5117379;28;20709;-63
2023/05/23 10:45:42;;;;;;;11.00;9.63;;;24.50;99.90;;;;;;5118211;28;20548;-63
2023/05/23 10:48:21;;;;;;;10.38;9.25;;;24.80;99.90;;;;;;5117332;28;20258;-63
2023/05/23 10:51:05;;;;;;;9.07;8.13;;;24.80;99.90;;;;;;5118226;28;20242;-63
2023/05/23 10:53:34;;;;;;;9.13;8.27;;;24.90;99.90;;;;;;5118388;28;20219;-64
2023/05/23 10:56:01;;;;;;;9.07;8.13;;;25.40;99.90;;;;;;5118347;28;20215;-63
2023/05/23 10:58:30;;;;;;;9.50;8.60;;;25.70;99.90;;;;;;5118657;28;20227;-62
2023/05/23 11:01:00;;;;;;;10.60;9.00;;;25.90;99.90;;;;;;5118177;28;20203;-63
2023/05/23 11:03:34;;;;;;;11.13;8.25;;;25.90;99.90;;;;;;5122111;27;20265;-63
2023/05/23 11:06:01;;;;;;;9.07;7.90;;;25.60;99.90;;;;;;5121458;27;20207;-62
2023/05/23 11:08:36;;;;;;;10.10;8.82;;;25.00;99.90;;;;;;5120714;28;20707;-62
2023/05/23 11:11:04;;;;;;;8.32;7.53;;;24.60;99.90;;;;;;5118074;28;20667;-63
2023/05/23 11:13:59;;;;;;;8.73;7.28;;;24.60;99.90;;;;;;5117187;28;20223;-62
2023/05/23 11:16:30;;;;;;;8.45;7.53;;;24.40;99.90;;;;;;5117960;28;20232;-63
2023/05/23 11:19:26;;;;;;;11.45;8.23;;;24.40;99.90;;;;;;5116479;28;20761;-63
2023/05/23 11:21:55;;;;;;;8.00;7.20;;;24.50;99.90;;;;;;5117825;28;20554;-63
2023/05/23 11:24:22;;;;;;;8.05;7.25;;;24.50;99.90;;;;;;5117726;28;20668;-64
2023/05/23 11:26:54;;;;;;;7.97;7.18;;;24.20;99.90;;;;;;5117480;28;20242;-62
2023/05/23 11:29:21;;;;;;;14.02;8.10;;;24.00;99.90;;;;;;5116969;28;20275;-65
2023/05/23 11:31:48;;;;;;;9.45;8.27;;;23.80;99.90;;;;;;5116545;28;20251;-64
2023/05/23 11:34:14;;;;;;;8.73;7.82;;;23.80;99.90;;;;;;5117265;28;20227;-63
2023/05/23 11:36:43;;;;;;;9.48;8.07;;;24.00;99.90;;;;;;5116690;28;20210;-63
2023/05/23 11:39:10;;;;;;;10.40;7.40;;;24.40;99.90;;;;;;5116128;27;20228;-64
2023/05/23 11:41:36;;;;;;;8.02;7.07;;;24.60;99.90;;;;;;5116886;28;20219;-63
2023/05/23 11:44:11;;;;;;;9.98;8.02;;;24.60;99.90;;;;;;5117562;28;20625;-63
2023/05/23 11:46:39;;;;;;;9.88;7.75;;;24.70;99.90;;;;;;5116976;28;20203;-64
2023/05/23 11:49:11;;;;;;;7.82;6.88;;;24.80;99.90;;;;;;5116853;28;20234;-63
2023/05/23 11:51:38;;;;;;;7.97;7.28;;;24.70;99.90;;;;;;5116347;28;20675;-63
2023/05/23 11:54:06;;;;;;;8.45;7.20;;;24.80;99.90;;;;;;5116430;28;20223;-63
2023/05/23 11:56:40;;;;;;;9.35;7.07;;;25.30;99.90;;;;;;5117146;28;20207;-63
2023/05/23 11:59:06;;;;;;;7.35;6.65;;;25.30;99.90;;;;;;5118354;28;20300;-65
2023/05/23 12:01:36;;;;;;;7.70;7.00;;;25.50;99.90;;;;;;5119188;28;20207;-62
2023/05/23 12:04:10;;;;;;;11.23;6.93;;;25.90;99.90;;;;;;5117362;27;20204;-63
2023/05/23 12:06:40;;;;;;;9.95;8.13;;;26.00;99.90;;;;;;5118981;28;20238;-64
2023/05/23 12:09:11;;;;;;;8.35;7.47;;;26.30;99.90;;;;;;5117157;27;20718;-63
2023/05/23 12:11:40;;;;;;;7.60;6.88;;;26.90;99.80;;;;;;5117722;28;20242;-63
2023/05/23 12:14:07;;;;;;;7.13;6.43;;;27.00;98.80;;;;;;5118412;28;20246;-63
2023/05/23 12:16:34;;;;;;;9.50;6.88;;;26.90;99.30;;;;;;5119908;28;20703;-63
2023/05/23 12:19:02;;;;;;;6.40;5.80;;;26.70;99.30;;;;;;5118729;28;20632;-64
2023/05/23 12:21:45;;;;;;;6.65;6.05;;;26.40;99.40;;;;;;5117738;28;20204;-64
2023/05/23 12:24:18;;;;;;;6.55;5.95;;;26.30;99.90;;;;;;5118082;28;20682;-64
2023/05/23 12:26:52;;;;;;;7.05;6.15;;;26.00;99.70;;;;;;5117200;27;20203;-64
2023/05/23 12:29:21;;;;;;;6.90;5.60;;;25.60;99.90;;;;;;5115786;28;20220;-64
2023/05/23 12:31:51;;;;;;;6.97;5.82;;;25.70;99.90;;;;;;5115858;28;20268;-68
2023/05/23 12:34:20;;;;;;;7.43;5.60;;;25.80;99.90;;;;;;5116293;28;20231;-67
2023/05/23 12:36:48;;;;;;;6.18;5.57;;;25.90;99.30;;;;;;5104822;28;20972;-65